This is the latest recevied weather packets stored in our database for station/object UHMM. If no packets are shown the sender has not sent any weather packets the latest 10 day(s).
| Time | Temp. | Humidity | Pressure | Rain* | Wind** | Luminosity | Snow |
|---|---|---|---|---|---|---|---|
| 1778220008 | 1.67° C | 93% | 1004 hPa | - | - | - | - |
| 1778218209 | 1.67° C | 86% | 1004 hPa | - | - | - | - |
| 1778216410 | 2.78° C | 80% | 1004 hPa | - | - | - | - |
| 1778214607 | 3.89° C | 75% | 1004 hPa | - | - | - | - |
| 1778212808 | 2.78° C | 80% | 1004 hPa | - | - | - | - |
| 1778211007 | 2.78° C | 80% | 1004 hPa | - | - | - | - |
| 1778209206 | 5.56° C | 60% | 1004 hPa | - | - | - | - |
| 1778207408 | 2.78° C | 80% | 1004 hPa | - | - | - | - |
| 1778205607 | 5° C | 65% | 1004 hPa | - | - | - | - |
| 1778203808 | 5° C | 65% | 1004 hPa | - | - | - | - |
| 1778202009 | 5° C | 65% | 1004 hPa | - | - | - | - |
| 1778200207 | 3.89° C | 69% | 1004 hPa | - | - | - | - |
| 1778198408 | 2.78° C | 74% | 1004 hPa | - | - | - | - |
| 1778194809 | 1.67° C | 86% | 1004 hPa | - | - | - | - |
| 1778193008 | 0.56° C | 93% | 1004 hPa | - | - | - | - |
| 1778189407 | 0.56° C | 93% | 1004 hPa | - | - | - | - |
| 1778187608 | 0° C | 10% | - | - | - | - | - |
| 1778184007 | 0° C | 10% | - | - | - | - | - |
| 1778182207 | 0° C | 10% | - | - | - | - | - |
| 1778180408 | 0° C | 92% | 1004 hPa | - | - | - | - |
| 1778178609 | 0° C | 92% | 1004 hPa | - | - | - | - |
| 1778175007 | 0° C | 92% | 1004 hPa | - | - | - | - |
| 1778173207 | 0° C | 92% | 1004 hPa | - | - | - | - |
| 1778171408 | 0° C | 92% | 1004 hPa | - | - | - | - |
| 1778169607 | 0° C | 92% | 1004 hPa | - | - | - | - |
* Rain since midnight (hover to see other rain measurements)
** Current wind speed in m/s (hover to see current wind gust speed)